McHenry, IL

11:07 PM CDT on July 28, 2016 (GMT -0500)
Pheasant Valley | | Change Station

Elev 768 ft 42.35 °N, 88.30 °W | Updated 1 second ago

Clear
Clear
70.2 °F
Feels Like 70.2 °F
N
0.0
Wind Variable Wind from NNE
Gusts 0.0 mph

Today
High -- | Low -- °F
--% Chance of Precip.
Yesterday
High -- | Low -- °F
Precip. -- in
Pressure 29.90 in
Visibility 10.0 miles
Clouds Clear
Dew Point 68 °F
Humidity 94%
Rainfall 1.56 in
Snow Depth Not available.
5:42 AM 8:16 PM
Waning Crescent, 26% visible
METAR KUGN 290355Z AUTO 36005KT 10SM CLR 21/19 A2993 RMK AO2 SLP124 T02060194
Pressure 29.90 in
Visibility 10.0 miles
Clouds Clear
Dew Point 68 °F
Humidity 94%
Rainfall 1.56 in
Snow Depth Not available.
5:42 AM 8:16 PM
Waning Crescent, 26% visible
METAR KUGN 290355Z AUTO 36005KT 10SM CLR 21/19 A2993 RMK AO2 SLP124 T02060194

10-Day Weather Forecast

Almanac

Astronomy

Jul. 28, 2016 Rise Set
Actual Time
Civil Twilight
Nautical Twilight
Astronomical Twilight
Moon
Length of Visible Light
Length of Day
Tomorrow will be .
, % of the Moon is Illuminated

Today's Extremes

State Highs State Lows

Community

WunderPhotos

Upload Photos

1,928,292 photos uploaded!

WunderBlog® & News

Nearby

Air Quality

  Air Quality AQ Index Pollutant
Not available.

Snow Depth

Station Depth Elevation

Earthquake Activity

City Distance Mag. Time & Date
Minimum magnitude displayed is 2.5.

Coastal Water Temperatures

Place Temperature

Stations

Nearby Weather Stations

Station Location Temp. Windchill Dew Point Humidity Wind Precip. Elev Updated Type
                   

Watches & Warnings

There are currently no watches in effect.